Bartlesville, OK

9:09 AM CDT on August 21, 2014 (GMT -0500)
Bartlesville Municipal | Change Station
CLOSE
Current Station
Airport
Location: Bartlesville,
Elevation: 712 ft
Nearby Weather Stations

Elev 712 ft 36.77 °N, 96.01 °W | Updated 16 minutes ago

Clear
Clear
81 °F
Feels Like 85 °F
N
9
Wind Variable Wind from South

Today
High -- | Low -- °F
--% Chance of Precip.
Yesterday
High -- | Low -- °F
Precip. -- in
6:46 AM 8:07 PM
Waning Crescent, 14% visible
Pressure 29.94 in
Visibility 10.0 miles
Clouds Clear
Heat Index 85 °F
Dew Point 72 °F
Humidity 74%
Rainfall 0.00 in
Snow Depth Not available.
UV 2 out of 12
Pollen 9.30 out of 12
Air Quality Not available.
Flu Activity Not available.
METAR KBVO 211353Z AUTO 18008KT 10SM CLR 27/22 A2998 RMK AO2 SLP138 T02720222

More Conditions Fewer Conditions

Pressure 29.94 in
Visibility 10.0 miles
Clouds Clear
Heat Index 85 °F
Dew Point 72 °F
Humidity 74%
Rainfall 0.00 in
Snow Depth Not available.
UV 2 out of 12
Pollen 9.30 out of 12
Air Quality Not available.
Flu Activity Not available.
METAR KBVO 211353Z AUTO 18008KT 10SM CLR 27/22 A2998 RMK AO2 SLP138 T02720222

More Conditions Fewer Conditions

10-Day Weather Forecast

Almanac

Astronomy

Aug. 21, 2014 Rise Set
Actual Time 6:46 AM CDT 8:07 PM CDT
Civil Twilight 6:19 AM CDT 8:34 PM CDT
Nautical Twilight 5:46 AM CDT 9:06 PM CDT
Astronomical Twilight 5:12 AM CDT 9:40 PM CDT
Moon 3:19 AM CDT 5:34 PM CDT
Length of Visible Light 14h 15m
Length of Day
13h 21m
Tomorrow will be 2m 9s shorter.
Waning Crescent, 14% of the Moon is Illuminated
Today
Waning Crescent
Aug 25
New
Sep 2
First Quarter
Sep 8
Full
Sep 15
Last Quarter

Today's Extremes

State Highs State Lows

Community

WunderPhotos

Upload Photos

1,745,925 photos uploaded!

WunderBlogs® & News

Nearby

Snow Depth

Station Depth Elevation
No new snow has been reported.

Earthquake Activity

City Distance Mag. Time & Date
Medford, Oklahoma 100 miles 3.0 9:13 PM CDT
2014-08-16
Medford, Oklahoma 101 miles 3.4 5:54 AM CDT
2014-08-16
Medford, Oklahoma 96 miles 2.5 7:09 AM CDT
2014-08-15
Langston, Oklahoma 87 miles 2.9 9:49 PM CDT
2014-08-14
Minimum magnitude displayed is 2.5.

Coastal Water Temperatures

Place Temperature
No Stations Reporting

Nearby Weather Stations